Daniel Field
KDNL : now visible

Airfield :











YOU CAN JOIN US ON...

 
LOGIN :

Register | Disclaimer

   EN    FR    IT 

 









Legend :    VFR   Marginal VFR   IFR   Intensive IFR   Very Intensive IFR
Visi :
Ceiling :
>= 8 km
>= 3000ft
5 to 8 km
1000 to 3000 ft
1500m to 5 km
500 to 1000 ft
800 to 1500m
200 to 500 ft
< 800m
< 200 ft
Symbols :   Thunderstorms  Fog  Heavy snow  Heavy precipitations  Wind > 20 kt






- Airport Elevation : 423 ft


KDNL - Daniel Field

CURRENT METAR :
  • 221453Z AUTO 07007KT 10SM SCT040 OVC060 25/19 A3022 RMK AO2 SLP229 T02500194 51011

EXPIRED METARs :
  • 221353Z AUTO 05006KT 10SM FEW032 24/19 A3022 RMK AO2 SLP227 T02390189
  • 221253Z AUTO 05005KT 10SM FEW027 SCT034 BKN042 22/18 A3020 RMK AO2 SLP222 T02220178

TAF KDNL
Valid from the 22 at 15:00 until the 23 at 12:00 UTC


221441Z 2215/2312 05006KT P6SM BKN050
FM221800 07007KT P6SM SCT050 BKN200
FM231000 04003KT 4SM BR SCT006
KZTL FIR / North America



MET'MAP, your aeronautical weather chart ! - Copyright ORBIFLY December 2007 - Disclaimer

ORBIFLY MET'MAP TEAM :

Programming & Development : Alexandra Zaïnal
Concept & original design : Baudouin d'Aumeries
Assistance for programming : Marc-Olivier Méhu
Technical & hardware support : Manuel Goepfert

Contact : metmap@orbifly.com




SOURCES & CREDITS :

   NOAA       Earth
Advisory